sensor_id;sensor_type;location;lat;lon;timestamp;P1;durP1;ratioP1;P2;durP2;ratioP2
23670;SDS011;12012;51.998;7.614;2023-05-08T00:00:36;9.50;;;8.60;;
23670;SDS011;12012;51.998;7.614;2023-05-08T00:03:02;10.18;;;9.18;;
23670;SDS011;12012;51.998;7.614;2023-05-08T00:05:28;9.57;;;8.60;;
23670;SDS011;12012;51.998;7.614;2023-05-08T00:07:54;8.18;;;7.38;;
23670;SDS011;12012;51.998;7.614;2023-05-08T00:10:28;10.43;;;8.82;;
23670;SDS011;12012;51.998;7.614;2023-05-08T00:12:54;8.82;;;7.88;;
23670;SDS011;12012;51.998;7.614;2023-05-08T00:15:20;9.50;;;8.50;;
23670;SDS011;12012;51.998;7.614;2023-05-08T00:17:46;11.32;;;10.20;;
23670;SDS011;12012;51.998;7.614;2023-05-08T00:20:12;10.65;;;9.57;;
23670;SDS011;12012;51.998;7.614;2023-05-08T00:22:38;8.60;;;7.75;;
23670;SDS011;12012;51.998;7.614;2023-05-08T00:25:03;8.85;;;8.05;;
23670;SDS011;12012;51.998;7.614;2023-05-08T00:27:32;8.57;;;7.70;;
23670;SDS011;12012;51.998;7.614;2023-05-08T00:29:58;10.13;;;9.10;;
23670;SDS011;12012;51.998;7.614;2023-05-08T00:32:24;9.52;;;8.52;;
23670;SDS011;12012;51.998;7.614;2023-05-08T00:34:49;9.43;;;8.50;;
23670;SDS011;12012;51.998;7.614;2023-05-08T00:37:15;10.27;;;9.25;;
23670;SDS011;12012;51.998;7.614;2023-05-08T00:39:41;8.95;;;8.15;;
23670;SDS011;12012;51.998;7.614;2023-05-08T00:42:06;9.73;;;8.57;;
23670;SDS011;12012;51.998;7.614;2023-05-08T00:44:32;9.25;;;8.40;;
23670;SDS011;12012;51.998;7.614;2023-05-08T00:46:58;10.57;;;9.50;;
23670;SDS011;12012;51.998;7.614;2023-05-08T00:49:24;11.20;;;10.10;;
23670;SDS011;12012;51.998;7.614;2023-05-08T00:51:51;9.85;;;7.85;;
23670;SDS011;12012;51.998;7.614;2023-05-08T00:54:19;10.15;;;9.10;;
23670;SDS011;12012;51.998;7.614;2023-05-08T00:56:45;10.25;;;9.15;;
23670;SDS011;12012;51.998;7.614;2023-05-08T00:59:12;9.95;;;8.63;;
23670;SDS011;12012;51.998;7.614;2023-05-08T01:01:40;9.65;;;8.57;;
23670;SDS011;12012;51.998;7.614;2023-05-08T01:04:07;10.73;;;9.65;;
23670;SDS011;12012;51.998;7.614;2023-05-08T01:06:33;9.77;;;8.88;;
23670;SDS011;12012;51.998;7.614;2023-05-08T01:08:59;9.23;;;8.32;;
23670;SDS011;12012;51.998;7.614;2023-05-08T01:11:29;10.40;;;9.30;;
23670;SDS011;12012;51.998;7.614;2023-05-08T01:14:39;12.15;;;10.50;;
23670;SDS011;12012;51.998;7.614;2023-05-08T01:22:52;10.98;;;9.35;;
23670;SDS011;12012;51.998;7.614;2023-05-08T01:28:31;9.55;;;8.48;;
23670;SDS011;12012;51.998;7.614;2023-05-08T01:33:46;12.75;;;9.93;;
23670;SDS011;12012;51.998;7.614;2023-05-08T01:36:34;10.10;;;9.10;;
23670;SDS011;12012;51.998;7.614;2023-05-08T01:39:16;8.95;;;8.05;;
23670;SDS011;12012;51.998;7.614;2023-05-08T01:41:45;9.98;;;8.95;;
23670;SDS011;12012;51.998;7.614;2023-05-08T01:44:18;10.90;;;9.80;;
23670;SDS011;12012;51.998;7.614;2023-05-08T01:46:49;11.05;;;9.70;;
23670;SDS011;12012;51.998;7.614;2023-05-08T01:52:04;10.13;;;8.90;;
23670;SDS011;12012;51.998;7.614;2023-05-08T01:54:45;12.35;;;10.00;;
23670;SDS011;12012;51.998;7.614;2023-05-08T01:57:19;12.15;;;9.52;;
23670;SDS011;12012;51.998;7.614;2023-05-08T01:59:48;16.05;;;11.25;;
23670;SDS011;12012;51.998;7.614;2023-05-08T02:02:16;10.45;;;9.35;;
23670;SDS011;12012;51.998;7.614;2023-05-08T02:04:42;12.13;;;9.55;;
23670;SDS011;12012;51.998;7.614;2023-05-08T02:07:08;10.48;;;9.38;;
23670;SDS011;12012;51.998;7.614;2023-05-08T02:09:35;11.18;;;9.35;;
23670;SDS011;12012;51.998;7.614;2023-05-08T02:12:01;11.05;;;9.82;;
23670;SDS011;12012;51.998;7.614;2023-05-08T02:14:30;12.95;;;10.43;;
23670;SDS011;12012;51.998;7.614;2023-05-08T02:16:56;9.98;;;8.32;;
23670;SDS011;12012;51.998;7.614;2023-05-08T02:19:24;9.68;;;8.68;;
23670;SDS011;12012;51.998;7.614;2023-05-08T02:21:53;12.98;;;10.82;;
23670;SDS011;12012;51.998;7.614;2023-05-08T02:24:21;10.45;;;9.35;;
23670;SDS011;12012;51.998;7.614;2023-05-08T02:26:48;11.15;;;8.85;;
23670;SDS011;12012;51.998;7.614;2023-05-08T02:29:16;10.30;;;8.85;;
23670;SDS011;12012;51.998;7.614;2023-05-08T02:31:42;11.95;;;8.63;;
23670;SDS011;12012;51.998;7.614;2023-05-08T02:34:11;10.30;;;7.90;;
23670;SDS011;12012;51.998;7.614;2023-05-08T02:36:36;9.35;;;8.35;;
23670;SDS011;12012;51.998;7.614;2023-05-08T02:39:03;12.38;;;9.40;;
23670;SDS011;12012;51.998;7.614;2023-05-08T02:41:31;12.05;;;10.25;;
23670;SDS011;12012;51.998;7.614;2023-05-08T02:43:59;11.80;;;10.60;;
23670;SDS011;12012;51.998;7.614;2023-05-08T02:46:26;9.80;;;8.80;;
23670;SDS011;12012;51.998;7.614;2023-05-08T02:49:19;8.98;;;8.07;;
23670;SDS011;12012;51.998;7.614;2023-05-08T02:54:37;10.07;;;8.98;;
23670;SDS011;12012;51.998;7.614;2023-05-08T03:02:44;14.10;;;10.00;;
23670;SDS011;12012;51.998;7.614;2023-05-08T03:05:28;11.65;;;10.07;;
23670;SDS011;12012;51.998;7.614;2023-05-08T03:07:58;9.77;;;8.77;;
23670;SDS011;12012;51.998;7.614;2023-05-08T03:10:28;10.77;;;9.63;;
23670;SDS011;12012;51.998;7.614;2023-05-08T03:12:57;9.38;;;8.30;;
23670;SDS011;12012;51.998;7.614;2023-05-08T03:15:27;11.90;;;10.35;;
23670;SDS011;12012;51.998;7.614;2023-05-08T03:17:55;11.23;;;9.50;;
23670;SDS011;12012;51.998;7.614;2023-05-08T03:20:25;13.55;;;10.00;;
23670;SDS011;12012;51.998;7.614;2023-05-08T03:22:55;11.13;;;9.43;;
23670;SDS011;12012;51.998;7.614;2023-05-08T03:25:21;12.57;;;10.75;;
23670;SDS011;12012;51.998;7.614;2023-05-08T03:27:48;11.95;;;10.75;;
23670;SDS011;12012;51.998;7.614;2023-05-08T03:30:15;11.13;;;9.85;;
23670;SDS011;12012;51.998;7.614;2023-05-08T03:32:43;11.07;;;9.88;;
23670;SDS011;12012;51.998;7.614;2023-05-08T03:35:10;14.98;;;11.23;;
23670;SDS011;12012;51.998;7.614;2023-05-08T03:37:37;11.23;;;9.55;;
23670;SDS011;12012;51.998;7.614;2023-05-08T03:40:03;11.00;;;9.20;;
23670;SDS011;12012;51.998;7.614;2023-05-08T03:42:30;11.45;;;10.25;;
23670;SDS011;12012;51.998;7.614;2023-05-08T03:44:56;11.38;;;9.30;;
23670;SDS011;12012;51.998;7.614;2023-05-08T03:47:22;10.55;;;9.48;;
23670;SDS011;12012;51.998;7.614;2023-05-08T03:49:50;11.63;;;9.88;;
23670;SDS011;12012;51.998;7.614;2023-05-08T03:52:16;10.77;;;9.68;;
23670;SDS011;12012;51.998;7.614;2023-05-08T03:54:42;10.50;;;9.43;;
23670;SDS011;12012;51.998;7.614;2023-05-08T03:57:07;10.18;;;9.18;;
23670;SDS011;12012;51.998;7.614;2023-05-08T04:05:09;10.27;;;9.02;;
23670;SDS011;12012;51.998;7.614;2023-05-08T04:07:50;12.15;;;10.43;;
23670;SDS011;12012;51.998;7.614;2023-05-08T04:10:20;10.67;;;9.47;;
23670;SDS011;12012;51.998;7.614;2023-05-08T04:13:02;10.88;;;9.77;;
23670;SDS011;12012;51.998;7.614;2023-05-08T04:15:43;9.15;;;8.25;;
23670;SDS011;12012;51.998;7.614;2023-05-08T04:18:16;11.13;;;9.32;;
23670;SDS011;12012;51.998;7.614;2023-05-08T04:20:45;12.80;;;10.75;;
23670;SDS011;12012;51.998;7.614;2023-05-08T04:23:13;11.32;;;9.48;;
23670;SDS011;12012;51.998;7.614;2023-05-08T04:25:42;13.05;;;8.82;;
23670;SDS011;12012;51.998;7.614;2023-05-08T04:28:10;11.68;;;10.45;;
23670;SDS011;12012;51.998;7.614;2023-05-08T04:30:36;10.52;;;8.88;;
23670;SDS011;12012;51.998;7.614;2023-05-08T04:33:03;10.43;;;8.75;;
23670;SDS011;12012;51.998;7.614;2023-05-08T04:35:30;10.02;;;9.02;;
23670;SDS011;12012;51.998;7.614;2023-05-08T04:37:57;10.80;;;9.68;;
23670;SDS011;12012;51.998;7.614;2023-05-08T04:40:23;12.57;;;10.27;;
23670;SDS011;12012;51.998;7.614;2023-05-08T04:42:49;11.27;;;9.65;;
23670;SDS011;12012;51.998;7.614;2023-05-08T04:45:15;11.48;;;9.60;;
23670;SDS011;12012;51.998;7.614;2023-05-08T04:47:41;11.00;;;9.65;;
23670;SDS011;12012;51.998;7.614;2023-05-08T04:50:06;10.52;;;9.23;;
23670;SDS011;12012;51.998;7.614;2023-05-08T04:52:32;11.65;;;10.48;;
23670;SDS011;12012;51.998;7.614;2023-05-08T04:54:58;11.35;;;9.70;;
23670;SDS011;12012;51.998;7.614;2023-05-08T04:57:23;10.88;;;9.73;;
23670;SDS011;12012;51.998;7.614;2023-05-08T04:59:49;10.50;;;8.77;;
23670;SDS011;12012;51.998;7.614;2023-05-08T05:02:15;9.90;;;8.90;;
23670;SDS011;12012;51.998;7.614;2023-05-08T05:04:40;9.48;;;8.50;;
23670;SDS011;12012;51.998;7.614;2023-05-08T05:07:06;10.80;;;9.70;;
23670;SDS011;12012;51.998;7.614;2023-05-08T05:09:31;8.73;;;7.57;;
23670;SDS011;12012;51.998;7.614;2023-05-08T05:12:01;11.15;;;9.40;;
23670;SDS011;12012;51.998;7.614;2023-05-08T05:14:30;10.05;;;7.97;;
23670;SDS011;12012;51.998;7.614;2023-05-08T05:16:55;10.13;;;8.05;;
23670;SDS011;12012;51.998;7.614;2023-05-08T05:19:21;10.13;;;8.93;;
23670;SDS011;12012;51.998;7.614;2023-05-08T05:21:47;10.80;;;8.15;;
23670;SDS011;12012;51.998;7.614;2023-05-08T05:24:12;13.05;;;8.95;;
23670;SDS011;12012;51.998;7.614;2023-05-08T05:26:38;10.23;;;9.23;;
23670;SDS011;12012;51.998;7.614;2023-05-08T05:29:03;10.35;;;9.25;;
23670;SDS011;12012;51.998;7.614;2023-05-08T05:31:29;8.30;;;7.50;;
23670;SDS011;12012;51.998;7.614;2023-05-08T05:33:55;9.88;;;8.60;;
23670;SDS011;12012;51.998;7.614;2023-05-08T05:36:20;10.02;;;8.82;;
23670;SDS011;12012;51.998;7.614;2023-05-08T05:38:46;9.93;;;8.93;;
23670;SDS011;12012;51.998;7.614;2023-05-08T05:41:11;10.88;;;8.93;;
23670;SDS011;12012;51.998;7.614;2023-05-08T05:43:37;11.60;;;9.55;;
23670;SDS011;12012;51.998;7.614;2023-05-08T05:46:06;13.60;;;10.23;;
23670;SDS011;12012;51.998;7.614;2023-05-08T05:48:33;10.20;;;8.15;;
23670;SDS011;12012;51.998;7.614;2023-05-08T05:50:59;10.88;;;9.77;;
23670;SDS011;12012;51.998;7.614;2023-05-08T05:53:25;13.95;;;11.15;;
23670;SDS011;12012;51.998;7.614;2023-05-08T05:55:50;10.18;;;8.32;;
23670;SDS011;12012;51.998;7.614;2023-05-08T05:58:17;10.90;;;8.15;;
23670;SDS011;12012;51.998;7.614;2023-05-08T06:00:42;8.35;;;7.47;;
23670;SDS011;12012;51.998;7.614;2023-05-08T06:03:08;9.57;;;8.57;;
23670;SDS011;12012;51.998;7.614;2023-05-08T06:05:35;9.05;;;8.15;;
23670;SDS011;12012;51.998;7.614;2023-05-08T06:08:01;9.98;;;8.98;;
23670;SDS011;12012;51.998;7.614;2023-05-08T06:10:26;10.88;;;9.80;;
23670;SDS011;12012;51.998;7.614;2023-05-08T06:12:52;9.82;;;8.10;;
23670;SDS011;12012;51.998;7.614;2023-05-08T06:15:18;10.43;;;8.93;;
23670;SDS011;12012;51.998;7.614;2023-05-08T06:17:44;11.90;;;10.63;;
23670;SDS011;12012;51.998;7.614;2023-05-08T06:20:10;9.55;;;8.50;;
23670;SDS011;12012;51.998;7.614;2023-05-08T06:22:36;13.23;;;11.80;;
23670;SDS011;12012;51.998;7.614;2023-05-08T06:25:03;9.80;;;8.90;;
23670;SDS011;12012;51.998;7.614;2023-05-08T06:27:31;10.07;;;9.07;;
23670;SDS011;12012;51.998;7.614;2023-05-08T06:29:57;10.32;;;9.32;;
23670;SDS011;12012;51.998;7.614;2023-05-08T06:32:23;11.48;;;10.27;;
23670;SDS011;12012;51.998;7.614;2023-05-08T06:34:49;13.15;;;11.18;;
23670;SDS011;12012;51.998;7.614;2023-05-08T06:37:14;11.30;;;10.13;;
23670;SDS011;12012;51.998;7.614;2023-05-08T06:39:40;12.93;;;9.13;;
23670;SDS011;12012;51.998;7.614;2023-05-08T06:42:05;9.48;;;8.57;;
23670;SDS011;12012;51.998;7.614;2023-05-08T06:44:31;9.77;;;8.88;;
23670;SDS011;12012;51.998;7.614;2023-05-08T06:46:57;10.88;;;8.48;;
23670;SDS011;12012;51.998;7.614;2023-05-08T06:49:23;10.48;;;9.00;;
23670;SDS011;12012;51.998;7.614;2023-05-08T06:51:48;12.32;;;9.73;;
23670;SDS011;12012;51.998;7.614;2023-05-08T06:54:14;11.60;;;9.10;;
23670;SDS011;12012;51.998;7.614;2023-05-08T06:56:40;10.32;;;8.18;;
23670;SDS011;12012;51.998;7.614;2023-05-08T06:59:05;9.20;;;8.30;;
23670;SDS011;12012;51.998;7.614;2023-05-08T07:01:31;10.95;;;9.85;;
23670;SDS011;12012;51.998;7.614;2023-05-08T07:03:56;9.65;;;8.43;;
23670;SDS011;12012;51.998;7.614;2023-05-08T07:06:22;10.55;;;9.45;;
23670;SDS011;12012;51.998;7.614;2023-05-08T07:08:48;11.45;;;10.27;;
23670;SDS011;12012;51.998;7.614;2023-05-08T07:11:13;11.98;;;10.75;;
23670;SDS011;12012;51.998;7.614;2023-05-08T07:13:39;13.57;;;9.50;;
23670;SDS011;12012;51.998;7.614;2023-05-08T07:16:10;10.32;;;9.13;;
23670;SDS011;12012;51.998;7.614;2023-05-08T07:18:36;11.55;;;9.90;;
23670;SDS011;12012;51.998;7.614;2023-05-08T07:21:02;12.07;;;10.23;;
23670;SDS011;12012;51.998;7.614;2023-05-08T07:23:27;7.95;;;7.15;;
23670;SDS011;12012;51.998;7.614;2023-05-08T07:25:53;8.57;;;7.72;;
23670;SDS011;12012;51.998;7.614;2023-05-08T07:28:19;12.50;;;10.35;;
23670;SDS011;12012;51.998;7.614;2023-05-08T07:30:45;11.20;;;10.10;;
23670;SDS011;12012;51.998;7.614;2023-05-08T07:33:11;13.55;;;9.15;;
23670;SDS011;12012;51.998;7.614;2023-05-08T07:35:40;15.43;;;12.07;;
23670;SDS011;12012;51.998;7.614;2023-05-08T07:38:06;8.73;;;7.53;;
23670;SDS011;12012;51.998;7.614;2023-05-08T07:40:31;12.30;;;9.93;;
23670;SDS011;12012;51.998;7.614;2023-05-08T07:42:57;8.43;;;7.57;;
23670;SDS011;12012;51.998;7.614;2023-05-08T07:45:22;11.63;;;9.57;;
23670;SDS011;12012;51.998;7.614;2023-05-08T07:47:51;9.48;;;8.57;;
23670;SDS011;12012;51.998;7.614;2023-05-08T07:50:19;10.93;;;9.87;;
23670;SDS011;12012;51.998;7.614;2023-05-08T07:52:45;12.70;;;11.43;;
23670;SDS011;12012;51.998;7.614;2023-05-08T07:55:12;10.93;;;9.43;;
23670;SDS011;12012;51.998;7.614;2023-05-08T07:57:38;10.45;;;9.35;;
23670;SDS011;12012;51.998;7.614;2023-05-08T08:00:05;10.15;;;9.10;;
23670;SDS011;12012;51.998;7.614;2023-05-08T08:02:33;9.80;;;8.07;;
23670;SDS011;12012;51.998;7.614;2023-05-08T08:04:58;11.27;;;9.35;;
23670;SDS011;12012;51.998;7.614;2023-05-08T08:07:24;8.57;;;7.78;;
23670;SDS011;12012;51.998;7.614;2023-05-08T08:09:50;17.27;;;10.85;;
23670;SDS011;12012;51.998;7.614;2023-05-08T08:12:15;12.82;;;9.88;;
23670;SDS011;12012;51.998;7.614;2023-05-08T08:14:41;10.40;;;8.35;;
23670;SDS011;12012;51.998;7.614;2023-05-08T08:17:06;9.23;;;8.25;;
23670;SDS011;12012;51.998;7.614;2023-05-08T08:19:32;10.50;;;9.23;;
23670;SDS011;12012;51.998;7.614;2023-05-08T08:21:57;10.10;;;9.20;;
23670;SDS011;12012;51.998;7.614;2023-05-08T08:24:23;10.55;;;9.45;;
23670;SDS011;12012;51.998;7.614;2023-05-08T08:26:49;10.88;;;9.32;;
23670;SDS011;12012;51.998;7.614;2023-05-08T08:29:14;11.45;;;8.98;;
23670;SDS011;12012;51.998;7.614;2023-05-08T08:31:40;9.52;;;8.18;;
23670;SDS011;12012;51.998;7.614;2023-05-08T08:34:06;10.65;;;9.55;;
23670;SDS011;12012;51.998;7.614;2023-05-08T08:36:31;9.95;;;8.95;;
23670;SDS011;12012;51.998;7.614;2023-05-08T08:38:57;13.10;;;11.80;;
23670;SDS011;12012;51.998;7.614;2023-05-08T08:41:23;9.77;;;8.93;;
23670;SDS011;12012;51.998;7.614;2023-05-08T08:43:48;11.05;;;7.75;;
23670;SDS011;12012;51.998;7.614;2023-05-08T08:46:14;10.30;;;8.23;;
23670;SDS011;12012;51.998;7.614;2023-05-08T08:48:45;11.27;;;8.35;;
23670;SDS011;12012;51.998;7.614;2023-05-08T08:51:13;10.05;;;9.02;;
23670;SDS011;12012;51.998;7.614;2023-05-08T08:54:03;12.07;;;10.85;;
23670;SDS011;12012;51.998;7.614;2023-05-08T08:56:35;13.85;;;10.32;;
23670;SDS011;12012;51.998;7.614;2023-05-08T08:59:02;8.23;;;7.38;;
23670;SDS011;12012;51.998;7.614;2023-05-08T09:01:29;8.00;;;7.28;;
23670;SDS011;12012;51.998;7.614;2023-05-08T09:04:00;10.90;;;9.80;;
23670;SDS011;12012;51.998;7.614;2023-05-08T09:06:26;9.77;;;8.23;;
23670;SDS011;12012;51.998;7.614;2023-05-08T09:08:55;11.52;;;10.35;;
23670;SDS011;12012;51.998;7.614;2023-05-08T09:11:25;10.60;;;7.82;;
23670;SDS011;12012;51.998;7.614;2023-05-08T09:13:51;10.95;;;7.13;;
23670;SDS011;12012;51.998;7.614;2023-05-08T09:16:18;9.65;;;8.25;;
23670;SDS011;12012;51.998;7.614;2023-05-08T09:18:44;14.75;;;10.65;;
23670;SDS011;12012;51.998;7.614;2023-05-08T09:21:10;9.48;;;8.30;;
23670;SDS011;12012;51.998;7.614;2023-05-08T09:23:35;9.43;;;7.35;;
23670;SDS011;12012;51.998;7.614;2023-05-08T09:26:01;10.85;;;9.00;;
23670;SDS011;12012;51.998;7.614;2023-05-08T09:28:27;7.35;;;6.65;;
23670;SDS011;12012;51.998;7.614;2023-05-08T09:30:57;10.02;;;8.90;;
23670;SDS011;12012;51.998;7.614;2023-05-08T09:33:24;8.23;;;7.17;;
23670;SDS011;12012;51.998;7.614;2023-05-08T09:35:51;10.65;;;7.63;;
23670;SDS011;12012;51.998;7.614;2023-05-08T09:38:37;9.00;;;7.03;;
23670;SDS011;12012;51.998;7.614;2023-05-08T09:43:42;10.95;;;9.95;;
23670;SDS011;12012;51.998;7.614;2023-05-08T09:48:47;7.18;;;6.50;;
23670;SDS011;12012;51.998;7.614;2023-05-08T09:51:21;7.30;;;6.45;;
23670;SDS011;12012;51.998;7.614;2023-05-08T09:53:49;12.82;;;8.60;;
23670;SDS011;12012;51.998;7.614;2023-05-08T09:56:31;7.97;;;6.72;;
23670;SDS011;12012;51.998;7.614;2023-05-08T09:59:02;9.77;;;7.80;;
23670;SDS011;12012;51.998;7.614;2023-05-08T10:01:29;7.75;;;6.97;;
23670;SDS011;12012;51.998;7.614;2023-05-08T10:03:55;7.30;;;6.63;;
23670;SDS011;12012;51.998;7.614;2023-05-08T10:06:21;7.72;;;7.00;;
23670;SDS011;12012;51.998;7.614;2023-05-08T10:08:47;11.00;;;9.02;;
23670;SDS011;12012;51.998;7.614;2023-05-08T10:11:14;6.00;;;5.50;;
23670;SDS011;12012;51.998;7.614;2023-05-08T10:13:43;9.18;;;7.03;;
23670;SDS011;12012;51.998;7.614;2023-05-08T10:16:13;10.98;;;9.80;;
23670;SDS011;12012;51.998;7.614;2023-05-08T10:18:49;8.68;;;7.93;;
23670;SDS011;12012;51.998;7.614;2023-05-08T10:21:20;11.35;;;9.10;;
23670;SDS011;12012;51.998;7.614;2023-05-08T10:23:48;8.15;;;7.35;;
23670;SDS011;12012;51.998;7.614;2023-05-08T10:26:20;8.55;;;6.63;;
23670;SDS011;12012;51.998;7.614;2023-05-08T10:28:54;9.20;;;7.43;;
23670;SDS011;12012;51.998;7.614;2023-05-08T10:31:23;6.63;;;6.03;;
23670;SDS011;12012;51.998;7.614;2023-05-08T10:33:54;7.45;;;6.72;;
23670;SDS011;12012;51.998;7.614;2023-05-08T10:36:23;8.27;;;5.90;;
23670;SDS011;12012;51.998;7.614;2023-05-08T10:38:49;6.68;;;6.13;;
23670;SDS011;12012;51.998;7.614;2023-05-08T10:41:15;6.50;;;5.82;;
23670;SDS011;12012;51.998;7.614;2023-05-08T10:43:42;6.05;;;5.10;;
23670;SDS011;12012;51.998;7.614;2023-05-08T10:46:12;4.60;;;4.20;;
23670;SDS011;12012;51.998;7.614;2023-05-08T10:48:47;5.68;;;5.15;;
23670;SDS011;12012;51.998;7.614;2023-05-08T10:54:32;5.35;;;4.85;;
23670;SDS011;12012;51.998;7.614;2023-05-08T10:57:06;4.88;;;4.47;;
23670;SDS011;12012;51.998;7.614;2023-05-08T10:59:34;7.20;;;5.00;;
23670;SDS011;12012;51.998;7.614;2023-05-08T11:02:04;4.30;;;3.90;;
23670;SDS011;12012;51.998;7.614;2023-05-08T11:04:32;5.15;;;4.50;;
23670;SDS011;12012;51.998;7.614;2023-05-08T11:06:58;4.97;;;4.55;;
23670;SDS011;12012;51.998;7.614;2023-05-08T11:09:27;4.03;;;3.63;;
23670;SDS011;12012;51.998;7.614;2023-05-08T11:14:46;5.88;;;4.80;;
23670;SDS011;12012;51.998;7.614;2023-05-08T11:17:24;4.50;;;4.10;;
23670;SDS011;12012;51.998;7.614;2023-05-08T11:19:53;4.25;;;3.85;;
23670;SDS011;12012;51.998;7.614;2023-05-08T11:25:02;3.50;;;3.20;;
23670;SDS011;12012;51.998;7.614;2023-05-08T11:27:33;4.05;;;3.35;;
23670;SDS011;12012;51.998;7.614;2023-05-08T11:35:42;8.68;;;6.55;;
23670;SDS011;12012;51.998;7.614;2023-05-08T11:38:27;8.77;;;6.03;;
23670;SDS011;12012;51.998;7.614;2023-05-08T11:41:06;8.07;;;7.28;;
23670;SDS011;12012;51.998;7.614;2023-05-08T11:46:16;11.05;;;9.73;;
23670;SDS011;12012;51.998;7.614;2023-05-08T11:48:43;6.80;;;6.07;;
23670;SDS011;12012;51.998;7.614;2023-05-08T11:51:09;10.02;;;5.50;;
23670;SDS011;12012;51.998;7.614;2023-05-08T11:53:35;9.02;;;8.20;;
23670;SDS011;12012;51.998;7.614;2023-05-08T11:56:01;6.47;;;5.03;;
23670;SDS011;12012;51.998;7.614;2023-05-08T11:58:27;9.18;;;8.38;;
23670;SDS011;12012;51.998;7.614;2023-05-08T12:00:53;8.68;;;6.63;;
23670;SDS011;12012;51.998;7.614;2023-05-08T12:03:22;8.85;;;7.57;;
23670;SDS011;12012;51.998;7.614;2023-05-08T12:05:55;6.68;;;6.13;;
23670;SDS011;12012;51.998;7.614;2023-05-08T12:08:21;7.22;;;6.40;;
23670;SDS011;12012;51.998;7.614;2023-05-08T12:13:16;10.32;;;9.43;;
23670;SDS011;12012;51.998;7.614;2023-05-08T12:15:45;11.82;;;10.73;;
23670;SDS011;12012;51.998;7.614;2023-05-08T12:18:12;9.25;;;8.45;;
23670;SDS011;12012;51.998;7.614;2023-05-08T12:20:38;10.30;;;9.38;;
23670;SDS011;12012;51.998;7.614;2023-05-08T12:23:03;9.00;;;8.10;;
23670;SDS011;12012;51.998;7.614;2023-05-08T12:25:29;8.45;;;7.65;;
23670;SDS011;12012;51.998;7.614;2023-05-08T12:27:55;8.25;;;7.43;;
23670;SDS011;12012;51.998;7.614;2023-05-08T12:30:21;9.98;;;9.07;;
23670;SDS011;12012;51.998;7.614;2023-05-08T12:32:47;9.32;;;8.15;;
23670;SDS011;12012;51.998;7.614;2023-05-08T12:35:13;10.27;;;8.27;;
23670;SDS011;12012;51.998;7.614;2023-05-08T12:37:39;8.20;;;7.40;;
23670;SDS011;12012;51.998;7.614;2023-05-08T12:40:05;10.18;;;9.20;;
23670;SDS011;12012;51.998;7.614;2023-05-08T12:42:48;9.52;;;8.57;;
23670;SDS011;12012;51.998;7.614;2023-05-08T12:45:22;10.32;;;9.35;;
23670;SDS011;12012;51.998;7.614;2023-05-08T12:47:50;11.60;;;10.43;;
23670;SDS011;12012;51.998;7.614;2023-05-08T12:50:16;10.82;;;9.85;;
23670;SDS011;12012;51.998;7.614;2023-05-08T12:52:45;8.90;;;8.05;;
23670;SDS011;12012;51.998;7.614;2023-05-08T12:58:02;10.57;;;8.10;;
23670;SDS011;12012;51.998;7.614;2023-05-08T13:03:12;9.07;;;8.27;;
23670;SDS011;12012;51.998;7.614;2023-05-08T13:05:45;9.50;;;8.60;;
23670;SDS011;12012;51.998;7.614;2023-05-08T13:08:11;9.98;;;8.50;;
23670;SDS011;12012;51.998;7.614;2023-05-08T13:13:16;8.25;;;7.45;;
23670;SDS011;12012;51.998;7.614;2023-05-08T13:15:43;6.85;;;6.22;;
23670;SDS011;12012;51.998;7.614;2023-05-08T13:18:09;6.63;;;6.03;;
23670;SDS011;12012;51.998;7.614;2023-05-08T13:20:35;6.13;;;5.55;;
23670;SDS011;12012;51.998;7.614;2023-05-08T13:23:01;7.07;;;5.45;;
23670;SDS011;12012;51.998;7.614;2023-05-08T13:25:28;10.43;;;8.63;;
23670;SDS011;12012;51.998;7.614;2023-05-08T13:27:54;9.95;;;9.02;;
23670;SDS011;12012;51.998;7.614;2023-05-08T13:30:20;8.25;;;7.55;;
23670;SDS011;12012;51.998;7.614;2023-05-08T13:32:49;8.43;;;7.57;;
23670;SDS011;12012;51.998;7.614;2023-05-08T13:35:16;6.95;;;6.35;;
23670;SDS011;12012;51.998;7.614;2023-05-08T13:37:42;9.63;;;8.70;;
23670;SDS011;12012;51.998;7.614;2023-05-08T13:40:08;10.18;;;9.27;;
23670;SDS011;12012;51.998;7.614;2023-05-08T13:42:33;9.18;;;8.15;;
23670;SDS011;12012;51.998;7.614;2023-05-08T13:44:59;12.40;;;11.13;;
23670;SDS011;12012;51.998;7.614;2023-05-08T13:47:25;13.60;;;12.23;;
23670;SDS011;12012;51.998;7.614;2023-05-08T13:49:51;13.93;;;12.63;;
23670;SDS011;12012;51.998;7.614;2023-05-08T13:52:17;9.13;;;7.65;;
23670;SDS011;12012;51.998;7.614;2023-05-08T13:54:42;10.05;;;8.65;;
23670;SDS011;12012;51.998;7.614;2023-05-08T13:57:08;10.15;;;9.20;;
23670;SDS011;12012;51.998;7.614;2023-05-08T13:59:34;11.82;;;10.77;;
23670;SDS011;12012;51.998;7.614;2023-05-08T14:01:59;10.48;;;9.48;;
23670;SDS011;12012;51.998;7.614;2023-05-08T14:04:25;9.75;;;8.80;;
23670;SDS011;12012;51.998;7.614;2023-05-08T14:06:50;12.98;;;11.68;;
23670;SDS011;12012;51.998;7.614;2023-05-08T14:09:16;13.88;;;12.52;;
23670;SDS011;12012;51.998;7.614;2023-05-08T14:11:42;13.43;;;12.02;;
23670;SDS011;12012;51.998;7.614;2023-05-08T14:14:07;13.32;;;11.93;;
23670;SDS011;12012;51.998;7.614;2023-05-08T14:16:33;12.75;;;11.55;;
23670;SDS011;12012;51.998;7.614;2023-05-08T14:18:59;12.00;;;10.70;;
23670;SDS011;12012;51.998;7.614;2023-05-08T14:21:25;9.20;;;8.27;;
23670;SDS011;12012;51.998;7.614;2023-05-08T14:23:51;8.43;;;7.57;;
23670;SDS011;12012;51.998;7.614;2023-05-08T14:26:17;8.68;;;7.88;;
23670;SDS011;12012;51.998;7.614;2023-05-08T14:28:44;11.48;;;10.48;;
23670;SDS011;12012;51.998;7.614;2023-05-08T14:31:09;8.20;;;7.38;;
23670;SDS011;12012;51.998;7.614;2023-05-08T14:33:35;6.30;;;5.70;;
23670;SDS011;12012;51.998;7.614;2023-05-08T14:36:00;7.80;;;7.07;;
23670;SDS011;12012;51.998;7.614;2023-05-08T14:38:27;6.70;;;6.10;;
23670;SDS011;12012;51.998;7.614;2023-05-08T14:40:53;6.00;;;5.38;;
23670;SDS011;12012;51.998;7.614;2023-05-08T14:43:19;7.68;;;6.97;;
23670;SDS011;12012;51.998;7.614;2023-05-08T14:45:45;5.85;;;5.25;;
23670;SDS011;12012;51.998;7.614;2023-05-08T14:48:11;6.20;;;4.97;;
23670;SDS011;12012;51.998;7.614;2023-05-08T14:50:36;6.53;;;5.93;;
23670;SDS011;12012;51.998;7.614;2023-05-08T14:53:02;4.32;;;3.92;;
23670;SDS011;12012;51.998;7.614;2023-05-08T14:55:28;5.20;;;4.80;;
23670;SDS011;12012;51.998;7.614;2023-05-08T14:57:53;5.47;;;4.97;;
23670;SDS011;12012;51.998;7.614;2023-05-08T15:00:19;4.60;;;4.20;;
23670;SDS011;12012;51.998;7.614;2023-05-08T15:02:45;4.47;;;3.80;;
23670;SDS011;12012;51.998;7.614;2023-05-08T15:05:11;5.60;;;5.10;;
23670;SDS011;12012;51.998;7.614;2023-05-08T15:07:37;7.13;;;4.78;;
23670;SDS011;12012;51.998;7.614;2023-05-08T15:10:03;6.80;;;6.18;;
23670;SDS011;12012;51.998;7.614;2023-05-08T15:12:29;6.55;;;5.95;;
23670;SDS011;12012;51.998;7.614;2023-05-08T15:14:55;9.10;;;7.78;;
23670;SDS011;12012;51.998;7.614;2023-05-08T15:17:20;7.10;;;6.28;;
23670;SDS011;12012;51.998;7.614;2023-05-08T15:19:46;7.43;;;6.68;;
23670;SDS011;12012;51.998;7.614;2023-05-08T15:22:12;9.30;;;8.50;;
23670;SDS011;12012;51.998;7.614;2023-05-08T15:24:38;7.45;;;6.72;;
23670;SDS011;12012;51.998;7.614;2023-05-08T15:27:03;5.90;;;5.40;;
23670;SDS011;12012;51.998;7.614;2023-05-08T15:29:29;13.23;;;12.02;;
23670;SDS011;12012;51.998;7.614;2023-05-08T15:31:55;7.85;;;7.05;;
23670;SDS011;12012;51.998;7.614;2023-05-08T15:34:20;6.60;;;5.80;;
23670;SDS011;12012;51.998;7.614;2023-05-08T15:36:46;10.77;;;9.73;;
23670;SDS011;12012;51.998;7.614;2023-05-08T15:39:12;10.18;;;9.25;;
23670;SDS011;12012;51.998;7.614;2023-05-08T15:41:38;7.35;;;6.70;;